sensor_id;sensor_type;location;lat;lon;timestamp;pressure;altitude;pressure_sealevel;temperature;humidity
30724;BME280;17473;52.286;20.930;2023-11-21T00:01:16;99612.44;;;-0.46;100.00
30724;BME280;17473;52.286;20.930;2023-11-21T00:03:44;99611.97;;;-0.41;100.00
30724;BME280;17473;52.286;20.930;2023-11-21T00:06:11;99616.72;;;-0.47;100.00
30724;BME280;17473;52.286;20.930;2023-11-21T00:08:38;99619.50;;;-0.57;100.00
30724;BME280;17473;52.286;20.930;2023-11-21T00:11:06;99630.47;;;-0.48;100.00
30724;BME280;17473;52.286;20.930;2023-11-21T00:13:33;99631.19;;;-0.51;100.00
30724;BME280;17473;52.286;20.930;2023-11-21T00:16:02;99640.81;;;-0.75;100.00
30724;BME280;17473;52.286;20.930;2023-11-21T00:18:29;99637.06;;;-0.67;100.00
30724;BME280;17473;52.286;20.930;2023-11-21T00:20:56;99642.75;;;-0.59;100.00
30724;BME280;17473;52.286;20.930;2023-11-21T00:23:26;99646.75;;;-0.64;100.00
30724;BME280;17473;52.286;20.930;2023-11-21T00:25:53;99646.63;;;-0.79;100.00
30724;BME280;17473;52.286;20.930;2023-11-21T00:28:20;99648.72;;;-0.73;100.00
30724;BME280;17473;52.286;20.930;2023-11-21T00:30:47;99646.06;;;-0.61;100.00
30724;BME280;17473;52.286;20.930;2023-11-21T00:33:14;99648.03;;;-0.57;100.00
30724;BME280;17473;52.286;20.930;2023-11-21T00:35:41;99644.94;;;-0.52;100.00
30724;BME280;17473;52.286;20.930;2023-11-21T00:38:08;99655.91;;;-0.69;100.00
30724;BME280;17473;52.286;20.930;2023-11-21T00:40:36;99656.19;;;-0.78;100.00
30724;BME280;17473;52.286;20.930;2023-11-21T00:43:04;99660.53;;;-0.90;100.00
30724;BME280;17473;52.286;20.930;2023-11-21T00:45:32;99658.97;;;-0.75;100.00
30724;BME280;17473;52.286;20.930;2023-11-21T00:47:59;99663.38;;;-0.74;100.00
30724;BME280;17473;52.286;20.930;2023-11-21T00:50:26;99658.66;;;-0.80;100.00
30724;BME280;17473;52.286;20.930;2023-11-21T00:52:54;99654.81;;;-0.73;100.00
30724;BME280;17473;52.286;20.930;2023-11-21T00:55:21;99656.84;;;-0.94;100.00
30724;BME280;17473;52.286;20.930;2023-11-21T00:57:48;99665.09;;;-0.74;100.00
30724;BME280;17473;52.286;20.930;2023-11-21T01:00:16;99662.38;;;-0.76;100.00
30724;BME280;17473;52.286;20.930;2023-11-21T01:02:44;99662.88;;;-0.82;100.00
30724;BME280;17473;52.286;20.930;2023-11-21T01:05:12;99654.34;;;-0.92;100.00
30724;BME280;17473;52.286;20.930;2023-11-21T01:07:39;99667.38;;;-1.04;100.00
30724;BME280;17473;52.286;20.930;2023-11-21T01:10:07;99668.22;;;-0.92;100.00
30724;BME280;17473;52.286;20.930;2023-11-21T01:12:37;99669.72;;;-0.96;100.00
30724;BME280;17473;52.286;20.930;2023-11-21T01:15:06;99672.84;;;-0.74;100.00
30724;BME280;17473;52.286;20.930;2023-11-21T01:17:36;99673.91;;;-0.84;100.00
30724;BME280;17473;52.286;20.930;2023-11-21T01:20:04;99674.75;;;-0.72;100.00
30724;BME280;17473;52.286;20.930;2023-11-21T01:22:40;99676.66;;;-0.69;100.00
30724;BME280;17473;52.286;20.930;2023-11-21T01:25:07;99684.72;;;-0.78;100.00
30724;BME280;17473;52.286;20.930;2023-11-21T01:27:35;99687.31;;;-0.78;100.00
30724;BME280;17473;52.286;20.930;2023-11-21T01:30:03;99684.50;;;-0.81;100.00
30724;BME280;17473;52.286;20.930;2023-11-21T01:32:30;99685.28;;;-0.82;100.00
30724;BME280;17473;52.286;20.930;2023-11-21T01:34:57;99686.22;;;-0.82;100.00
30724;BME280;17473;52.286;20.930;2023-11-21T01:37:24;99691.28;;;-0.83;100.00
30724;BME280;17473;52.286;20.930;2023-11-21T01:39:55;99692.56;;;-0.90;100.00
30724;BME280;17473;52.286;20.930;2023-11-21T01:42:22;99677.41;;;-0.84;100.00
30724;BME280;17473;52.286;20.930;2023-11-21T01:44:50;99682.06;;;-0.91;100.00
30724;BME280;17473;52.286;20.930;2023-11-21T01:47:17;99689.06;;;-0.90;100.00
30724;BME280;17473;52.286;20.930;2023-11-21T01:49:45;99686.47;;;-0.90;100.00
30724;BME280;17473;52.286;20.930;2023-11-21T01:52:13;99694.47;;;-0.74;100.00
30724;BME280;17473;52.286;20.930;2023-11-21T01:54:41;99703.38;;;-0.70;100.00
30724;BME280;17473;52.286;20.930;2023-11-21T01:57:09;99698.19;;;-0.70;100.00
30724;BME280;17473;52.286;20.930;2023-11-21T01:59:38;99701.56;;;-0.71;100.00
30724;BME280;17473;52.286;20.930;2023-11-21T02:02:08;99699.59;;;-0.62;100.00
30724;BME280;17473;52.286;20.930;2023-11-21T02:04:37;99683.66;;;-0.93;100.00
30724;BME280;17473;52.286;20.930;2023-11-21T02:07:05;99686.88;;;-0.84;100.00
30724;BME280;17473;52.286;20.930;2023-11-21T02:09:34;99693.53;;;-0.88;100.00
30724;BME280;17473;52.286;20.930;2023-11-21T02:12:05;99686.00;;;-0.71;100.00
30724;BME280;17473;52.286;20.930;2023-11-21T02:14:32;99692.03;;;-0.72;100.00
30724;BME280;17473;52.286;20.930;2023-11-21T02:17:00;99692.03;;;-0.72;100.00
30724;BME280;17473;52.286;20.930;2023-11-21T02:19:28;99698.72;;;-0.63;100.00
30724;BME280;17473;52.286;20.930;2023-11-21T02:21:57;99700.44;;;-0.63;100.00
30724;BME280;17473;52.286;20.930;2023-11-21T02:24:31;99699.41;;;-0.65;100.00
30724;BME280;17473;52.286;20.930;2023-11-21T02:26:59;99708.59;;;-0.96;100.00
30724;BME280;17473;52.286;20.930;2023-11-21T02:29:27;99706.97;;;-0.93;100.00
30724;BME280;17473;52.286;20.930;2023-11-21T02:31:57;99703.31;;;-0.58;100.00
30724;BME280;17473;52.286;20.930;2023-11-21T02:34:25;99708.53;;;-0.84;100.00
30724;BME280;17473;52.286;20.930;2023-11-21T02:36:52;99710.88;;;-1.00;100.00
30724;BME280;17473;52.286;20.930;2023-11-21T02:39:21;99710.44;;;-0.81;100.00
30724;BME280;17473;52.286;20.930;2023-11-21T02:41:49;99700.38;;;-0.76;100.00
30724;BME280;17473;52.286;20.930;2023-11-21T02:44:17;99706.66;;;-0.73;100.00
30724;BME280;17473;52.286;20.930;2023-11-21T02:46:44;99717.44;;;-0.67;100.00
30724;BME280;17473;52.286;20.930;2023-11-21T02:49:11;99719.94;;;-0.68;100.00
30724;BME280;17473;52.286;20.930;2023-11-21T02:51:39;99720.72;;;-0.69;100.00
30724;BME280;17473;52.286;20.930;2023-11-21T02:54:06;99717.97;;;-0.84;100.00
30724;BME280;17473;52.286;20.930;2023-11-21T02:56:35;99725.75;;;-0.84;100.00
30724;BME280;17473;52.286;20.930;2023-11-21T02:59:02;99722.84;;;-0.89;100.00
30724;BME280;17473;52.286;20.930;2023-11-21T03:01:29;99730.75;;;-0.87;100.00
30724;BME280;17473;52.286;20.930;2023-11-21T03:03:56;99715.59;;;-0.95;100.00
30724;BME280;17473;52.286;20.930;2023-11-21T03:06:24;99722.84;;;-0.89;100.00
30724;BME280;17473;52.286;20.930;2023-11-21T03:08:51;99734.16;;;-0.88;100.00
30724;BME280;17473;52.286;20.930;2023-11-21T03:11:18;99725.50;;;-1.01;100.00
30724;BME280;17473;52.286;20.930;2023-11-21T03:13:45;99732.72;;;-0.97;100.00
30724;BME280;17473;52.286;20.930;2023-11-21T03:16:14;99724.88;;;-1.10;100.00
30724;BME280;17473;52.286;20.930;2023-11-21T03:18:41;99729.69;;;-1.03;100.00
30724;BME280;17473;52.286;20.930;2023-11-21T03:21:09;99713.19;;;-0.91;100.00
30724;BME280;17473;52.286;20.930;2023-11-21T03:23:36;99719.31;;;-1.03;100.00
30724;BME280;17473;52.286;20.930;2023-11-21T03:26:04;99728.63;;;-1.18;100.00
30724;BME280;17473;52.286;20.930;2023-11-21T03:28:31;99733.22;;;-1.14;100.00
30724;BME280;17473;52.286;20.930;2023-11-21T03:30:58;99726.06;;;-1.30;100.00
30724;BME280;17473;52.286;20.930;2023-11-21T03:33:25;99734.03;;;-0.90;100.00
30724;BME280;17473;52.286;20.930;2023-11-21T03:35:52;99726.75;;;-0.96;100.00
30724;BME280;17473;52.286;20.930;2023-11-21T03:38:20;99737.56;;;-1.01;100.00
30724;BME280;17473;52.286;20.930;2023-11-21T03:40:47;99730.88;;;-1.23;100.00
30724;BME280;17473;52.286;20.930;2023-11-21T03:43:14;99731.94;;;-1.07;100.00
30724;BME280;17473;52.286;20.930;2023-11-21T03:45:42;99743.38;;;-1.17;100.00
30724;BME280;17473;52.286;20.930;2023-11-21T03:48:09;99750.91;;;-1.08;100.00
30724;BME280;17473;52.286;20.930;2023-11-21T03:50:39;99747.63;;;-1.06;100.00
30724;BME280;17473;52.286;20.930;2023-11-21T03:53:06;99732.38;;;-1.27;100.00
30724;BME280;17473;52.286;20.930;2023-11-21T03:55:33;99745.00;;;-1.31;100.00
30724;BME280;17473;52.286;20.930;2023-11-21T03:58:00;99749.53;;;-1.40;100.00
30724;BME280;17473;52.286;20.930;2023-11-21T04:00:28;99753.03;;;-1.15;100.00
30724;BME280;17473;52.286;20.930;2023-11-21T04:02:55;99756.47;;;-1.28;100.00
30724;BME280;17473;52.286;20.930;2023-11-21T04:05:23;99761.78;;;-1.26;100.00
30724;BME280;17473;52.286;20.930;2023-11-21T04:07:51;99767.63;;;-1.17;100.00
30724;BME280;17473;52.286;20.930;2023-11-21T04:10:18;99768.72;;;-1.25;100.00
30724;BME280;17473;52.286;20.930;2023-11-21T04:12:46;99761.88;;;-1.24;100.00
30724;BME280;17473;52.286;20.930;2023-11-21T04:15:13;99773.59;;;-1.30;100.00
30724;BME280;17473;52.286;20.930;2023-11-21T04:17:41;99767.16;;;-1.23;100.00
30724;BME280;17473;52.286;20.930;2023-11-21T04:20:09;99763.38;;;-1.40;100.00
30724;BME280;17473;52.286;20.930;2023-11-21T04:22:42;99765.97;;;-1.40;100.00
30724;BME280;17473;52.286;20.930;2023-11-21T04:25:14;99763.38;;;-1.40;100.00
30724;BME280;17473;52.286;20.930;2023-11-21T04:27:44;99768.72;;;-1.25;100.00
30724;BME280;17473;52.286;20.930;2023-11-21T04:30:14;99776.06;;;-1.31;100.00
30724;BME280;17473;52.286;20.930;2023-11-21T04:32:42;99776.53;;;-1.37;100.00
30724;BME280;17473;52.286;20.930;2023-11-21T04:35:09;99781.97;;;-1.46;100.00
30724;BME280;17473;52.286;20.930;2023-11-21T04:37:37;99788.03;;;-1.45;100.00
30724;BME280;17473;52.286;20.930;2023-11-21T04:40:04;99793.53;;;-1.29;100.00
30724;BME280;17473;52.286;20.930;2023-11-21T04:42:35;99805.13;;;-1.23;100.00
30724;BME280;17473;52.286;20.930;2023-11-21T04:45:06;99798.72;;;-1.17;100.00
30724;BME280;17473;52.286;20.930;2023-11-21T04:47:39;99795.75;;;-1.09;100.00
30724;BME280;17473;52.286;20.930;2023-11-21T04:50:07;99801.75;;;-1.34;100.00
30724;BME280;17473;52.286;20.930;2023-11-21T04:52:34;99792.47;;;-1.07;100.00
30724;BME280;17473;52.286;20.930;2023-11-21T04:55:02;99794.75;;;-1.12;100.00
30724;BME280;17473;52.286;20.930;2023-11-21T04:57:29;99793.84;;;-1.24;100.00
30724;BME280;17473;52.286;20.930;2023-11-21T04:59:57;99795.34;;;-1.39;100.00
30724;BME280;17473;52.286;20.930;2023-11-21T05:02:24;99801.97;;;-1.31;100.00
30724;BME280;17473;52.286;20.930;2023-11-21T05:05:02;99807.53;;;-1.38;100.00
30724;BME280;17473;52.286;20.930;2023-11-21T05:07:32;99801.56;;;-1.37;100.00
30724;BME280;17473;52.286;20.930;2023-11-21T05:09:59;99810.53;;;-1.32;100.00
30724;BME280;17473;52.286;20.930;2023-11-21T05:12:26;99811.78;;;-1.27;100.00
30724;BME280;17473;52.286;20.930;2023-11-21T05:14:53;99817.97;;;-1.25;100.00
30724;BME280;17473;52.286;20.930;2023-11-21T05:17:21;99818.19;;;-1.22;100.00
30724;BME280;17473;52.286;20.930;2023-11-21T05:19:48;99822.03;;;-1.17;100.00
30724;BME280;17473;52.286;20.930;2023-11-21T05:22:16;99818.78;;;-1.38;100.00
30724;BME280;17473;52.286;20.930;2023-11-21T05:24:43;99819.34;;;-1.30;100.00
30724;BME280;17473;52.286;20.930;2023-11-21T05:27:10;99823.41;;;-1.34;100.00
30724;BME280;17473;52.286;20.930;2023-11-21T05:29:37;99823.28;;;-1.23;100.00
30724;BME280;17473;52.286;20.930;2023-11-21T05:32:05;99826.88;;;-1.21;100.00
30724;BME280;17473;52.286;20.930;2023-11-21T05:34:32;99829.69;;;-1.30;100.00
30724;BME280;17473;52.286;20.930;2023-11-21T05:36:59;99837.34;;;-1.20;100.00
30724;BME280;17473;52.286;20.930;2023-11-21T05:39:26;99836.09;;;-1.13;100.00
30724;BME280;17473;52.286;20.930;2023-11-21T05:41:54;99838.25;;;-1.31;100.00
30724;BME280;17473;52.286;20.930;2023-11-21T05:44:22;99840.72;;;-1.21;100.00
30724;BME280;17473;52.286;20.930;2023-11-21T05:46:50;99835.22;;;-1.26;100.00
30724;BME280;17473;52.286;20.930;2023-11-21T05:49:18;99850.97;;;-1.34;100.00
30724;BME280;17473;52.286;20.930;2023-11-21T05:51:48;99844.47;;;-1.41;100.00
30724;BME280;17473;52.286;20.930;2023-11-21T05:54:15;99845.81;;;-1.22;100.00
30724;BME280;17473;52.286;20.930;2023-11-21T05:56:43;99853.31;;;-1.14;100.00
30724;BME280;17473;52.286;20.930;2023-11-21T05:59:11;99857.81;;;-0.99;100.00
30724;BME280;17473;52.286;20.930;2023-11-21T06:01:41;99858.94;;;-1.07;100.00
30724;BME280;17473;52.286;20.930;2023-11-21T06:04:08;99863.00;;;-1.11;100.00
30724;BME280;17473;52.286;20.930;2023-11-21T06:06:36;99862.56;;;-1.05;100.00
30724;BME280;17473;52.286;20.930;2023-11-21T06:09:03;99870.44;;;-1.16;100.00
30724;BME280;17473;52.286;20.930;2023-11-21T06:11:32;99870.81;;;-1.23;100.00
30724;BME280;17473;52.286;20.930;2023-11-21T06:13:59;99885.22;;;-1.38;100.00
30724;BME280;17473;52.286;20.930;2023-11-21T06:16:26;99882.88;;;-1.35;100.00
30724;BME280;17473;52.286;20.930;2023-11-21T06:18:54;99880.16;;;-1.49;100.00
30724;BME280;17473;52.286;20.930;2023-11-21T06:21:21;99888.84;;;-1.36;100.00
30724;BME280;17473;52.286;20.930;2023-11-21T06:23:48;99889.41;;;-1.52;100.00
30724;BME280;17473;52.286;20.930;2023-11-21T06:26:19;99887.50;;;-1.55;100.00
30724;BME280;17473;52.286;20.930;2023-11-21T06:28:47;99890.75;;;-1.34;100.00
30724;BME280;17473;52.286;20.930;2023-11-21T06:31:14;99897.28;;;-1.27;100.00
30724;BME280;17473;52.286;20.930;2023-11-21T06:33:41;99900.44;;;-1.19;100.00
30724;BME280;17473;52.286;20.930;2023-11-21T06:36:10;99888.38;;;-1.54;100.00
30724;BME280;17473;52.286;20.930;2023-11-21T06:38:38;99897.41;;;-1.37;100.00
30724;BME280;17473;52.286;20.930;2023-11-21T06:41:06;99895.69;;;-1.37;100.00
30724;BME280;17473;52.286;20.930;2023-11-21T06:43:33;99894.56;;;-1.29;100.00
30724;BME280;17473;52.286;20.930;2023-11-21T06:46:00;99899.31;;;-1.35;100.00
30724;BME280;17473;52.286;20.930;2023-11-21T06:48:27;99912.16;;;-1.13;100.00
30724;BME280;17473;52.286;20.930;2023-11-21T06:50:54;99924.41;;;-1.10;100.00
30724;BME280;17473;52.286;20.930;2023-11-21T06:53:21;99925.47;;;-1.44;100.00
30724;BME280;17473;52.286;20.930;2023-11-21T06:55:48;99918.56;;;-1.31;100.00
30724;BME280;17473;52.286;20.930;2023-11-21T06:58:15;99926.25;;;-1.45;100.00
30724;BME280;17473;52.286;20.930;2023-11-21T07:00:42;99925.13;;;-1.24;100.00
30724;BME280;17473;52.286;20.930;2023-11-21T07:03:13;99921.50;;;-1.27;100.00
30724;BME280;17473;52.286;20.930;2023-11-21T07:05:41;99935.81;;;-1.32;100.00
30724;BME280;17473;52.286;20.930;2023-11-21T07:08:08;99942.56;;;-1.34;100.00
30724;BME280;17473;52.286;20.930;2023-11-21T07:10:35;99940.84;;;-1.45;100.00
30724;BME280;17473;52.286;20.930;2023-11-21T07:13:03;99943.47;;;-1.33;100.00
30724;BME280;17473;52.286;20.930;2023-11-21T07:15:30;99941.00;;;-1.32;100.00
30724;BME280;17473;52.286;20.930;2023-11-21T07:17:58;99943.00;;;-1.28;100.00
30724;BME280;17473;52.286;20.930;2023-11-21T07:20:25;99946.28;;;-1.30;100.00
30724;BME280;17473;52.286;20.930;2023-11-21T07:22:53;99952.03;;;-1.22;100.00
30724;BME280;17473;52.286;20.930;2023-11-21T07:25:21;99950.56;;;-1.19;100.00
30724;BME280;17473;52.286;20.930;2023-11-21T07:27:49;99948.97;;;-1.29;100.00
30724;BME280;17473;52.286;20.930;2023-11-21T07:30:16;99951.69;;;-1.27;100.00
30724;BME280;17473;52.286;20.930;2023-11-21T07:32:44;99964.84;;;-1.36;100.00
30724;BME280;17473;52.286;20.930;2023-11-21T07:35:11;99949.66;;;-1.43;100.00
30724;BME280;17473;52.286;20.930;2023-11-21T07:37:39;99954.50;;;-1.48;100.00
30724;BME280;17473;52.286;20.930;2023-11-21T07:40:06;99949.41;;;-1.34;100.00
30724;BME280;17473;52.286;20.930;2023-11-21T07:42:35;99949.13;;;-1.27;100.00
30724;BME280;17473;52.286;20.930;2023-11-21T07:45:04;99964.09;;;-1.23;100.00
30724;BME280;17473;52.286;20.930;2023-11-21T07:47:31;99961.97;;;-1.17;100.00
30724;BME280;17473;52.286;20.930;2023-11-21T07:50:05;99962.06;;;-1.27;100.00
30724;BME280;17473;52.286;20.930;2023-11-21T07:52:34;99959.34;;;-1.40;100.00
30724;BME280;17473;52.286;20.930;2023-11-21T07:55:02;99956.09;;;-1.26;100.00
30724;BME280;17473;52.286;20.930;2023-11-21T07:57:29;99953.28;;;-1.17;100.00
30724;BME280;17473;52.286;20.930;2023-11-21T07:59:56;99960.25;;;-1.28;100.00
30724;BME280;17473;52.286;20.930;2023-11-21T08:02:23;99958.56;;;-1.28;100.00
30724;BME280;17473;52.286;20.930;2023-11-21T08:04:51;99956.19;;;-1.13;100.00
30724;BME280;17473;52.286;20.930;2023-11-21T08:07:18;99962.94;;;-1.15;100.00
30724;BME280;17473;52.286;20.930;2023-11-21T08:09:45;99971.75;;;-1.01;100.00
30724;BME280;17473;52.286;20.930;2023-11-21T08:12:14;99964.66;;;-1.03;100.00
30724;BME280;17473;52.286;20.930;2023-11-21T08:14:42;99967.78;;;-1.07;100.00
30724;BME280;17473;52.286;20.930;2023-11-21T08:17:10;99972.75;;;-0.99;100.00
30724;BME280;17473;52.286;20.930;2023-11-21T08:19:37;99977.72;;;-0.78;100.00
30724;BME280;17473;52.286;20.930;2023-11-21T08:22:04;99970.84;;;-0.89;100.00
30724;BME280;17473;52.286;20.930;2023-11-21T08:24:32;99965.22;;;-0.96;100.00
30724;BME280;17473;52.286;20.930;2023-11-21T08:26:59;99973.66;;;-0.74;100.00
30724;BME280;17473;52.286;20.930;2023-11-21T08:29:27;99979.06;;;-0.95;100.00
30724;BME280;17473;52.286;20.930;2023-11-21T08:31:54;99987.84;;;-0.81;100.00
30724;BME280;17473;52.286;20.930;2023-11-21T08:34:21;99986.94;;;-0.93;100.00
30724;BME280;17473;52.286;20.930;2023-11-21T08:36:48;99993.16;;;-0.80;100.00
30724;BME280;17473;52.286;20.930;2023-11-21T08:39:15;99993.59;;;-0.97;100.00
30724;BME280;17473;52.286;20.930;2023-11-21T08:41:43;99993.81;;;-0.82;100.00
30724;BME280;17473;52.286;20.930;2023-11-21T08:44:10;99997.31;;;-0.93;100.00
30724;BME280;17473;52.286;20.930;2023-11-21T08:46:37;99998.47;;;-0.90;100.00
30724;BME280;17473;52.286;20.930;2023-11-21T08:49:06;100011.78;;;-0.85;100.00
30724;BME280;17473;52.286;20.930;2023-11-21T08:51:33;100004.53;;;-0.77;100.00
30724;BME280;17473;52.286;20.930;2023-11-21T08:54:00;100006.09;;;-0.80;100.00
30724;BME280;17473;52.286;20.930;2023-11-21T08:56:31;100019.22;;;-0.78;100.00
30724;BME280;17473;52.286;20.930;2023-11-21T08:58:58;100009.38;;;-0.70;100.00
30724;BME280;17473;52.286;20.930;2023-11-21T09:01:27;100012.09;;;-0.57;100.00
30724;BME280;17473;52.286;20.930;2023-11-21T09:03:54;100017.81;;;-0.61;100.00
30724;BME280;17473;52.286;20.930;2023-11-21T09:06:22;100022.47;;;-0.57;100.00
30724;BME280;17473;52.286;20.930;2023-11-21T09:08:50;100026.28;;;-0.52;100.00
30724;BME280;17473;52.286;20.930;2023-11-21T09:11:17;100027.84;;;-0.54;100.00
30724;BME280;17473;52.286;20.930;2023-11-21T09:13:44;100032.81;;;-0.45;100.00
30724;BME280;17473;52.286;20.930;2023-11-21T09:16:11;100032.38;;;-0.75;100.00
30724;BME280;17473;52.286;20.930;2023-11-21T09:18:38;100029.31;;;-0.34;100.00
30724;BME280;17473;52.286;20.930;2023-11-21T09:21:06;100026.94;;;-0.42;100.00
30724;BME280;17473;52.286;20.930;2023-11-21T09:23:34;100029.34;;;-0.45;100.00
30724;BME280;17473;52.286;20.930;2023-11-21T09:26:01;100039.25;;;-0.52;100.00
30724;BME280;17473;52.286;20.930;2023-11-21T09:28:28;100027.97;;;-0.40;100.00
30724;BME280;17473;52.286;20.930;2023-11-21T09:30:55;100035.72;;;-0.28;100.00
30724;BME280;17473;52.286;20.930;2023-11-21T09:33:22;100037.22;;;-0.44;100.00
30724;BME280;17473;52.286;20.930;2023-11-21T09:35:51;100035.88;;;-0.51;100.00
30724;BME280;17473;52.286;20.930;2023-11-21T09:38:19;100033.63;;;-0.58;100.00
30724;BME280;17473;52.286;20.930;2023-11-21T09:40:46;100035.63;;;-0.42;100.00
30724;BME280;17473;52.286;20.930;2023-11-21T09:43:17;100027.47;;;-0.23;100.00
30724;BME280;17473;52.286;20.930;2023-11-21T09:45:47;100032.19;;;-0.17;100.00
30724;BME280;17473;52.286;20.930;2023-11-21T09:48:15;100031.41;;;-0.16;100.00
30724;BME280;17473;52.286;20.930;2023-11-21T09:50:44;100030.09;;;0.03;100.00
30724;BME280;17473;52.286;20.930;2023-11-21T09:53:17;100036.94;;;-0.11;100.00
30724;BME280;17473;52.286;20.930;2023-11-21T09:55:48;100034.09;;;-0.14;100.00
30724;BME280;17473;52.286;20.930;2023-11-21T09:58:18;100037.63;;;-0.14;100.00
30724;BME280;17473;52.286;20.930;2023-11-21T10:00:48;100039.97;;;-0.17;100.00
30724;BME280;17473;52.286;20.930;2023-11-21T10:03:15;100042.81;;;-0.26;100.00
30724;BME280;17473;52.286;20.930;2023-11-21T10:05:44;100037.53;;;-0.27;100.00
30724;BME280;17473;52.286;20.930;2023-11-21T10:08:14;100048.91;;;-0.25;100.00
30724;BME280;17473;52.286;20.930;2023-11-21T10:10:46;100048.34;;;-0.33;100.00
30724;BME280;17473;52.286;20.930;2023-11-21T10:13:18;100050.16;;;-0.32;100.00
30724;BME280;17473;52.286;20.930;2023-11-21T10:15:51;100052.16;;;-0.16;100.00
30724;BME280;17473;52.286;20.930;2023-11-21T10:18:19;100061.34;;;-0.33;100.00
30724;BME280;17473;52.286;20.930;2023-11-21T10:20:49;100054.47;;;-0.33;100.00
30724;BME280;17473;52.286;20.930;2023-11-21T10:23:21;100059.09;;;-0.40;100.00
30724;BME280;17473;52.286;20.930;2023-11-21T10:25:52;100066.19;;;-0.38;100.00
30724;BME280;17473;52.286;20.930;2023-11-21T10:28:20;100058.94;;;-0.18;100.00
30724;BME280;17473;52.286;20.930;2023-11-21T10:30:48;100054.88;;;-0.14;100.00
30724;BME280;17473;52.286;20.930;2023-11-21T10:33:15;100059.31;;;-0.25;100.00
30724;BME280;17473;52.286;20.930;2023-11-21T10:35:48;100048.19;;;-0.11;100.00
30724;BME280;17473;52.286;20.930;2023-11-21T10:38:22;100060.75;;;-0.17;100.00
30724;BME280;17473;52.286;20.930;2023-11-21T10:40:51;100058.97;;;-0.30;100.00
30724;BME280;17473;52.286;20.930;2023-11-21T10:43:19;100068.56;;;-0.29;100.00
30724;BME280;17473;52.286;20.930;2023-11-21T10:45:47;100064.84;;;-0.33;100.00
30724;BME280;17473;52.286;20.930;2023-11-21T10:48:15;100074.78;;;-0.63;100.00
30724;BME280;17473;52.286;20.930;2023-11-21T10:50:45;100074.09;;;-0.36;100.00
30724;BME280;17473;52.286;20.930;2023-11-21T10:53:13;100076.69;;;-0.60;100.00
30724;BME280;17473;52.286;20.930;2023-11-21T10:55:40;100083.69;;;-0.59;100.00
30724;BME280;17473;52.286;20.930;2023-11-21T10:58:08;100081.19;;;-0.57;100.00
30724;BME280;17473;52.286;20.930;2023-11-21T11:00:38;100080.22;;;-0.59;100.00
30724;BME280;17473;52.286;20.930;2023-11-21T11:03:07;100081.09;;;-0.71;100.00
30724;BME280;17473;52.286;20.930;2023-11-21T11:05:44;100075.69;;;-0.50;100.00
30724;BME280;17473;52.286;20.930;2023-11-21T11:08:22;100075.66;;;-0.62;100.00
30724;BME280;17473;52.286;20.930;2023-11-21T11:10:55;100073.22;;;-0.60;100.00
30724;BME280;17473;52.286;20.930;2023-11-21T11:13:22;100077.50;;;-0.37;100.00
30724;BME280;17473;52.286;20.930;2023-11-21T11:15:56;100078.81;;;-0.42;100.00
30724;BME280;17473;52.286;20.930;2023-11-21T11:18:26;100076.13;;;-0.44;100.00
30724;BME280;17473;52.286;20.930;2023-11-21T11:20:54;100080.84;;;-0.62;100.00
30724;BME280;17473;52.286;20.930;2023-11-21T11:35:08;100087.88;;;-0.37;100.00
30724;BME280;17473;52.286;20.930;2023-11-21T11:37:37;100095.66;;;-0.37;100.00
30724;BME280;17473;52.286;20.930;2023-11-21T11:40:08;100099.13;;;-0.37;100.00
30724;BME280;17473;52.286;20.930;2023-11-21T11:42:37;100092.84;;;-0.64;100.00
30724;BME280;17473;52.286;20.930;2023-11-21T11:45:18;100093.03;;;-0.85;100.00
30724;BME280;17473;52.286;20.930;2023-11-21T11:47:48;100089.56;;;-0.73;100.00
30724;BME280;17473;52.286;20.930;2023-11-21T11:50:15;100098.13;;;-0.74;100.00
30724;BME280;17473;52.286;20.930;2023-11-21T11:52:55;100106.81;;;-0.50;100.00
30724;BME280;17473;52.286;20.930;2023-11-21T11:55:24;100097.09;;;-0.53;100.00
30724;BME280;17473;52.286;20.930;2023-11-21T11:57:54;100092.84;;;-0.52;100.00
30724;BME280;17473;52.286;20.930;2023-11-21T12:03:00;100087.97;;;-0.48;100.00
30724;BME280;17473;52.286;20.930;2023-11-21T12:05:33;100097.00;;;-0.66;100.00
30724;BME280;17473;52.286;20.930;2023-11-21T12:08:05;100095.75;;;-0.48;100.00
30724;BME280;17473;52.286;20.930;2023-11-21T12:10:38;100100.28;;;-0.57;100.00
30724;BME280;17473;52.286;20.930;2023-11-21T12:13:09;100095.28;;;-0.54;100.00
30724;BME280;17473;52.286;20.930;2023-11-21T12:15:40;100107.28;;;-0.56;100.00
30724;BME280;17473;52.286;20.930;2023-11-21T12:18:09;100111.78;;;-0.41;100.00
30724;BME280;17473;52.286;20.930;2023-11-21T12:20:36;100110.19;;;-0.39;100.00
30724;BME280;17473;52.286;20.930;2023-11-21T12:23:07;100118.09;;;-0.50;100.00
30724;BME280;17473;52.286;20.930;2023-11-21T12:25:36;100117.97;;;-0.39;100.00
30724;BME280;17473;52.286;20.930;2023-11-21T12:28:04;100124.66;;;-0.55;100.00
30724;BME280;17473;52.286;20.930;2023-11-21T12:30:35;100122.94;;;-0.78;100.00
30724;BME280;17473;52.286;20.930;2023-11-21T12:33:03;100126.56;;;-0.64;100.00
30724;BME280;17473;52.286;20.930;2023-11-21T12:35:35;100114.03;;;-0.46;100.00
30724;BME280;17473;52.286;20.930;2023-11-21T12:38:04;100126.63;;;-0.27;100.00
30724;BME280;17473;52.286;20.930;2023-11-21T12:40:32;100126.75;;;-0.49;100.00
30724;BME280;17473;52.286;20.930;2023-11-21T12:43:00;100140.56;;;-0.50;100.00
30724;BME280;17473;52.286;20.930;2023-11-21T12:45:32;100132.19;;;-0.58;100.00
30724;BME280;17473;52.286;20.930;2023-11-21T12:48:06;100128.47;;;-0.73;100.00
30724;BME280;17473;52.286;20.930;2023-11-21T12:50:39;100127.88;;;-0.69;100.00
30724;BME280;17473;52.286;20.930;2023-11-21T12:53:11;100133.31;;;-0.54;100.00
30724;BME280;17473;52.286;20.930;2023-11-21T12:55:40;100131.25;;;-0.70;100.00
30724;BME280;17473;52.286;20.930;2023-11-21T12:58:10;100125.09;;;-0.72;100.00